Time;durP1;ratioP1;P1;durP2;ratioP2;P2;SDS_P1;SDS_P2;PMS_P1;PMS_P2;Temp;Humidity;BMP_temperature;BMP_pressure;BME280_temperature;BME280_humidity;BME280_pressure;Samples;Min_cycle;Max_cycle;Signal;HPM_P1;HPM_P2
2023/05/27 00:00:11;;;;;;;17.27;4.25;;;;;;;11.30;68.77;103104.78;7389353;19;20019;-51
2023/05/27 00:02:38;;;;;;;15.15;4.40;;;;;;;11.33;68.92;103094.91;7388420;19;20404;-49
2023/05/27 00:05:06;;;;;;;16.05;4.05;;;;;;;11.33;68.87;103099.34;7389671;19;20035;-52
2023/05/27 00:07:33;;;;;;;22.77;4.25;;;;;;;11.29;68.98;103097.72;7390017;19;20483;-51
2023/05/27 00:10:00;;;;;;;16.67;4.57;;;;;;;11.15;69.80;103093.84;7389426;19;20513;-52
2023/05/27 00:12:28;;;;;;;15.13;3.72;;;;;;;11.31;69.12;103090.59;7389021;19;20011;-52
2023/05/27 00:14:55;;;;;;;17.08;4.35;;;;;;;11.35;68.58;103089.53;7387483;19;20019;-52
2023/05/27 00:17:22;;;;;;;15.60;5.07;;;;;;;11.19;69.24;103087.47;7388769;19;20018;-53
2023/05/27 00:19:51;;;;;;;13.80;3.97;;;;;;;11.00;69.90;103083.81;7387392;19;20010;-53
2023/05/27 00:22:18;;;;;;;16.80;4.82;;;;;;;10.93;70.58;103085.81;7388519;19;20087;-51
2023/05/27 00:24:45;;;;;;;17.35;4.25;;;;;;;11.01;69.91;103089.97;7389036;19;20017;-51
2023/05/27 00:27:12;;;;;;;16.80;4.50;;;;;;;11.00;70.08;103097.06;7389812;19;20035;-52
2023/05/27 00:29:40;;;;;;;15.95;4.50;;;;;;;11.07;70.04;103092.41;7387273;19;20057;-52
2023/05/27 00:32:07;;;;;;;19.25;4.90;;;;;;;11.12;69.77;103096.59;7388961;19;20035;-53
2023/05/27 00:34:34;;;;;;;20.67;5.00;;;;;;;11.11;69.94;103086.91;7387804;19;20099;-53
2023/05/27 00:37:04;;;;;;;16.58;4.32;;;;;;;11.21;69.23;103095.38;7387457;19;20487;-53
2023/05/27 00:39:31;;;;;;;22.23;5.38;;;;;;;10.87;70.59;103091.34;7386542;19;20011;-53
2023/05/27 00:42:00;;;;;;;14.50;4.57;;;;;;;10.70;71.31;103086.69;7388866;19;20023;-53
2023/05/27 00:44:28;;;;;;;16.42;5.07;;;;;;;10.65;71.64;103088.66;7388582;19;20034;-52
2023/05/27 00:46:55;;;;;;;19.33;5.43;;;;;;;10.59;71.77;103080.91;7389748;19;20082;-54
2023/05/27 00:49:25;;;;;;;19.45;5.43;;;;;;;10.71;71.58;103082.25;7386413;19;20028;-53
2023/05/27 00:51:52;;;;;;;18.33;5.80;;;;;;;10.67;71.62;103083.28;7387982;19;20022;-54
2023/05/27 00:54:20;;;;;;;18.73;5.97;;;;;;;10.45;72.32;103069.94;7389094;19;20014;-51
2023/05/27 00:56:47;;;;;;;22.17;7.05;;;;;;;10.41;72.39;103077.13;7389289;19;20090;-49
2023/05/27 00:59:15;;;;;;;20.05;7.80;;;;;;;10.35;72.81;103079.16;7385112;19;20491;-51
2023/05/27 01:01:43;;;;;;;20.83;8.43;;;;;;;10.45;72.25;103084.06;7388438;19;20411;-53
2023/05/27 01:04:12;;;;;;;20.17;7.63;;;;;;;10.56;71.89;103074.84;7388347;19;20630;-52
2023/05/27 01:07:03;;;;;;;23.10;8.55;;;;;;;10.78;71.00;103082.88;7388531;19;20025;-51
2023/05/27 01:10:01;;;;;;;16.23;7.45;;;;;;;10.66;71.88;103079.75;7387679;19;20025;-51
2023/05/27 01:12:41;;;;;;;21.45;7.25;;;;;;;10.61;71.44;103071.13;7387887;19;20124;-52
2023/05/27 01:15:09;;;;;;;16.70;6.10;;;;;;;10.65;71.52;103075.41;7395523;19;20068;-52
2023/05/27 01:17:42;;;;;;;18.63;5.70;;;;;;;10.66;71.18;103081.56;7395899;19;20011;-52
2023/05/27 01:20:14;;;;;;;15.23;5.07;;;;;;;10.80;70.84;103079.25;7392081;19;20026;-50
2023/05/27 01:22:43;;;;;;;18.23;5.50;;;;;;;10.82;70.66;103074.75;7393786;19;20064;-52
2023/05/27 01:25:10;;;;;;;17.83;5.78;;;;;;;10.46;71.59;103064.59;7394663;19;20032;-52
2023/05/27 01:27:40;;;;;;;17.70;5.18;;;;;;;10.49;72.21;103074.19;7395690;19;20022;-51
2023/05/27 01:30:08;;;;;;;17.92;5.57;;;;;;;10.40;72.42;103075.41;7393042;19;20015;-52
2023/05/27 01:32:41;;;;;;;21.02;5.13;;;;;;;10.16;73.26;103079.75;7392266;19;20045;-51
2023/05/27 01:35:50;;;;;;;16.52;4.75;;;;;;;10.54;72.06;103076.72;7394844;19;20392;-51
2023/05/27 01:38:21;;;;;;;13.73;4.38;;;;;;;10.73;71.15;103075.97;7392805;19;20336;-51
2023/05/27 01:40:50;;;;;;;17.50;5.28;;;;;;;10.53;71.81;103070.56;7394662;19;20085;-52
2023/05/27 01:43:18;;;;;;;18.23;4.88;;;;;;;10.51;72.36;103074.16;7392230;19;20021;-50
2023/05/27 01:45:46;;;;;;;14.88;4.82;;;;;;;10.66;71.63;103079.75;7394435;19;20014;-52
2023/05/27 01:48:13;;;;;;;17.15;5.32;;;;;;;10.74;71.14;103071.53;7395104;19;20086;-50
2023/05/27 01:50:40;;;;;;;17.65;5.68;;;;;;;10.80;71.03;103070.41;7393764;19;20018;-51
2023/05/27 01:53:07;;;;;;;19.25;5.75;;;;;;;10.83;70.80;103071.19;7391161;19;20094;-52
2023/05/27 01:55:34;;;;;;;17.25;5.20;;;;;;;10.83;70.74;103065.88;7393345;19;20097;-52
2023/05/27 01:58:02;;;;;;;19.38;5.43;;;;;;;10.47;71.89;103058.38;7394471;19;20041;-51
2023/05/27 02:00:29;;;;;;;17.55;6.00;;;;;;;10.20;73.16;103056.69;7393802;19;20426;-51
2023/05/27 02:02:57;;;;;;;19.73;6.35;;;;;;;9.98;73.87;103062.69;7391392;19;20422;-51
2023/05/27 02:05:24;;;;;;;17.83;5.63;;;;;;;9.91;74.08;103061.19;7393716;19;20036;-51
2023/05/27 02:07:51;;;;;;;18.80;5.90;;;;;;;9.83;74.43;103068.50;7392382;19;20035;-51
2023/05/27 02:10:18;;;;;;;20.02;5.80;;;;;;;10.05;73.57;103068.66;7392905;19;20487;-52
2023/05/27 02:12:47;;;;;;;19.42;5.85;;;;;;;10.32;71.82;103069.50;7391939;19;20035;-51
2023/05/27 02:15:14;;;;;;;18.95;5.63;;;;;;;10.48;71.30;103067.19;7393137;19;20081;-51
2023/05/27 02:17:44;;;;;;;17.85;5.40;;;;;;;10.17;72.04;103057.63;7393700;19;20044;-51
2023/05/27 02:20:12;;;;;;;15.02;5.35;;;;;;;9.88;73.32;103065.69;7390559;19;20043;-52
2023/05/27 02:22:39;;;;;;;16.48;4.70;;;;;;;9.88;73.79;103053.38;7391733;19;20351;-51
2023/05/27 02:25:06;;;;;;;15.38;4.68;;;;;;;10.25;72.00;103057.41;7391211;19;20023;-51
2023/05/27 02:27:33;;;;;;;15.95;5.30;;;;;;;10.11;72.40;103049.94;7393569;19;20015;-51
2023/05/27 02:30:01;;;;;;;17.35;4.90;;;;;;;9.88;73.30;103056.00;7390670;19;20360;-51
2023/05/27 02:32:28;;;;;;;17.08;5.55;;;;;;;9.70;74.06;103053.97;7392584;19;20666;-51
2023/05/27 02:34:55;;;;;;;16.92;5.03;;;;;;;9.69;74.63;103053.13;7392699;19;20034;-51
2023/05/27 02:37:24;;;;;;;16.23;5.15;;;;;;;9.83;74.30;103047.34;7392659;19;20015;-52
2023/05/27 02:39:53;;;;;;;17.00;5.13;;;;;;;10.07;73.35;103040.34;7390608;19;20021;-52
2023/05/27 02:42:20;;;;;;;18.15;5.65;;;;;;;10.26;71.99;103048.53;7391866;19;20422;-50
2023/05/27 02:44:47;;;;;;;16.42;5.20;;;;;;;10.27;71.62;103054.72;7392503;19;20018;-51
2023/05/27 02:47:14;;;;;;;19.17;5.20;;;;;;;10.25;71.60;103052.97;7392917;19;20022;-51
2023/05/27 02:49:41;;;;;;;17.13;4.82;;;;;;;9.96;72.42;103046.03;7391688;19;20081;-51
2023/05/27 02:52:09;;;;;;;17.90;4.78;;;;;;;9.83;73.69;103049.13;7389567;19;20527;-50
2023/05/27 02:54:36;;;;;;;13.82;4.20;;;;;;;10.09;72.58;103058.84;7390957;19;20018;-51
2023/05/27 02:57:03;;;;;;;17.08;4.80;;;;;;;10.22;72.16;103062.78;7391947;19;20047;-49
2023/05/27 02:59:30;;;;;;;17.25;5.10;;;;;;;10.23;71.78;103064.53;7390906;19;20014;-52
2023/05/27 03:01:58;;;;;;;15.98;4.38;;;;;;;10.07;72.34;103065.94;7391143;19;20039;-51
2023/05/27 03:04:25;;;;;;;14.77;4.47;;;;;;;9.80;73.49;103065.09;7390456;19;20030;-51
2023/05/27 03:06:52;;;;;;;16.67;4.75;;;;;;;9.69;73.79;103062.81;7390051;19;20018;-50
2023/05/27 03:09:19;;;;;;;14.70;4.72;;;;;;;9.65;74.12;103063.81;7391329;19;20014;-49
2023/05/27 03:11:46;;;;;;;13.77;4.35;;;;;;;9.81;73.30;103062.41;7391328;19;20022;-49
2023/05/27 03:14:13;;;;;;;14.27;4.60;;;;;;;10.12;72.37;103064.03;7390244;19;20029;-48
2023/05/27 03:16:40;;;;;;;18.00;4.72;;;;;;;10.16;71.92;103055.06;7391596;19;20099;-50
2023/05/27 03:19:08;;;;;;;17.17;5.05;;;;;;;9.81;72.92;103057.13;7390215;19;20028;-50
2023/05/27 03:21:35;;;;;;;14.60;4.18;;;;;;;9.97;72.71;103055.69;7390539;19;20015;-49
2023/05/27 03:24:03;;;;;;;17.77;5.28;;;;;;;10.05;71.92;103057.22;7392355;19;20089;-51
2023/05/27 03:26:30;;;;;;;15.63;4.88;;;;;;;9.98;72.66;103051.25;7391272;19;20379;-49
2023/05/27 03:28:57;;;;;;;15.73;4.85;;;;;;;9.59;73.37;103056.97;7390713;19;20074;-51
2023/05/27 03:31:24;;;;;;;16.92;4.35;;;;;;;9.87;72.80;103054.25;7390974;19;20033;-50
2023/05/27 03:33:52;;;;;;;16.52;5.10;;;;;;;9.88;72.43;103057.75;7390151;19;20019;-50
2023/05/27 03:36:20;;;;;;;19.77;4.88;;;;;;;9.67;73.57;103046.13;7387592;19;20074;-52
2023/05/27 03:38:47;;;;;;;15.15;4.65;;;;;;;9.55;73.91;103051.81;7388841;19;20023;-48
2023/05/27 03:41:15;;;;;;;14.27;4.65;;;;;;;9.56;73.89;103054.41;7390899;19;20010;-51
2023/05/27 03:43:42;;;;;;;13.80;4.40;;;;;;;9.61;73.82;103057.75;7391380;19;20022;-50
2023/05/27 03:46:09;;;;;;;17.15;5.20;;;;;;;9.43;74.39;103059.25;7388796;19;20102;-50
2023/05/27 03:48:36;;;;;;;16.75;4.78;;;;;;;9.40;74.56;103048.75;7390834;19;20024;-56
2023/05/27 03:51:04;;;;;;;17.92;5.18;;;;;;;9.34;75.09;103054.22;7390399;19;20045;-51
2023/05/27 03:53:31;;;;;;;15.65;4.85;;;;;;;9.33;75.23;103063.06;7391034;19;20197;-50
2023/05/27 03:55:58;;;;;;;20.63;4.80;;;;;;;9.72;73.64;103060.91;7390229;19;20042;-51
2023/05/27 03:58:26;;;;;;;19.10;5.68;;;;;;;10.03;71.33;103054.59;7390099;19;20014;-51
2023/05/27 04:00:54;;;;;;;17.98;4.95;;;;;;;9.72;73.05;103054.78;7388625;19;20355;-52
2023/05/27 04:03:22;;;;;;;18.52;5.75;;;;;;;9.61;73.73;103057.75;7390383;19;20018;-52
2023/05/27 04:05:49;;;;;;;16.95;5.13;;;;;;;9.54;74.37;103066.84;7388138;19;20018;-49
2023/05/27 04:08:16;;;;;;;17.58;5.22;;;;;;;9.48;74.97;103065.25;7390495;19;20014;-52
2023/05/27 04:10:43;;;;;;;18.42;4.72;;;;;;;9.54;74.74;103053.63;7389735;19;20032;-50
2023/05/27 04:13:10;;;;;;;15.73;4.88;;;;;;;9.51;74.61;103051.91;7388529;19;20015;-50
2023/05/27 04:15:37;;;;;;;15.90;4.68;;;;;;;9.56;74.76;103066.78;7389413;19;20025;-51
2023/05/27 04:18:05;;;;;;;15.98;4.97;;;;;;;9.51;75.49;103059.84;7390062;19;20023;-50
2023/05/27 04:20:39;;;;;;;14.75;4.65;;;;;;;9.91;74.36;103060.31;7386388;19;20022;-50
2023/05/27 04:23:07;;;;;;;15.63;5.40;;;;;;;9.81;74.70;103065.06;7389720;19;20089;-47
2023/05/27 04:25:39;;;;;;;18.88;5.20;;;;;;;9.76;75.00;103075.78;7389340;19;20014;-47
2023/05/27 04:28:08;;;;;;;20.17;4.88;;;;;;;9.75;75.06;103059.97;7389530;19;20022;-47
2023/05/27 04:30:36;;;;;;;16.67;4.30;;;;;;;9.82;74.96;103058.84;7389211;19;20100;-46
2023/05/27 04:33:03;;;;;;;13.23;4.22;;;;;;;9.77;75.21;103063.44;7387809;19;20023;-47
2023/05/27 04:35:30;;;;;;;13.88;3.97;;;;;;;9.90;75.31;103055.94;7389630;19;20036;-46
2023/05/27 04:38:01;;;;;;;15.25;4.53;;;;;;;10.23;74.21;103061.88;7389709;19;20018;-46
2023/05/27 04:40:34;;;;;;;13.57;4.78;;;;;;;10.40;73.13;103058.66;7387411;19;20014;-46
2023/05/27 04:43:01;;;;;;;15.13;4.93;;;;;;;10.44;72.80;103055.81;7387850;19;20035;-48
2023/05/27 04:45:29;;;;;;;17.02;4.60;;;;;;;10.49;72.97;103063.59;7389138;19;20026;-47
2023/05/27 04:47:57;;;;;;;13.43;4.28;;;;;;;10.54;72.88;103058.16;7390420;19;20022;-46
2023/05/27 04:50:24;;;;;;;15.27;4.63;;;;;;;10.56;72.75;103053.66;7395513;19;20011;-48
2023/05/27 04:52:52;;;;;;;16.27;4.50;;;;;;;10.65;72.71;103059.50;7392619;19;20029;-49
2023/05/27 04:55:20;;;;;;;16.70;4.82;;;;;;;10.69;72.16;103060.25;7395821;19;20039;-49
2023/05/27 04:57:47;;;;;;;15.98;4.82;;;;;;;10.73;72.18;103054.78;7394909;19;20015;-47
2023/05/27 05:00:35;;;;;;;17.73;5.03;;;;;;;10.73;71.92;103046.81;7393589;19;20021;-46
2023/05/27 05:03:03;;;;;;;15.85;4.55;;;;;;;10.67;72.26;103046.19;7394215;19;20018;-46
2023/05/27 05:05:31;;;;;;;16.33;4.57;;;;;;;10.78;72.14;103043.13;7395168;19;20022;-49
2023/05/27 05:07:59;;;;;;;17.75;5.40;;;;;;;10.84;71.75;103051.72;7396045;19;20127;-46
2023/05/27 05:10:26;;;;;;;18.92;5.03;;;;;;;10.83;71.71;103044.66;7395515;19;20017;-46
2023/05/27 05:12:53;;;;;;;17.70;4.47;;;;;;;10.86;71.50;103047.22;7394291;19;20038;-49
2023/05/27 05:15:20;;;;;;;18.35;5.35;;;;;;;10.90;71.55;103050.59;7395792;19;20096;-46
2023/05/27 05:17:47;;;;;;;17.55;4.88;;;;;;;10.89;71.85;103052.41;7396065;19;20011;-46
2023/05/27 05:20:15;;;;;;;14.75;5.00;;;;;;;10.86;71.95;103047.22;7393192;19;20025;-45
2023/05/27 05:22:42;;;;;;;19.63;5.32;;;;;;;10.89;71.69;103048.88;7393883;19;20021;-46
2023/05/27 05:25:10;;;;;;;18.25;5.30;;;;;;;11.03;71.37;103053.66;7395164;19;20022;-46
2023/05/27 05:27:37;;;;;;;19.48;5.60;;;;;;;11.06;71.23;103048.22;7394337;19;20022;-48
2023/05/27 05:30:05;;;;;;;19.92;5.63;;;;;;;11.06;71.24;103054.38;7394204;19;20025;-46
2023/05/27 05:32:32;;;;;;;19.77;5.53;;;;;;;11.11;70.85;103047.16;7394279;19;20015;-49
2023/05/27 05:34:59;;;;;;;17.25;5.28;;;;;;;11.04;71.03;103050.94;7394767;19;20039;-50
2023/05/27 05:37:26;;;;;;;21.30;6.05;;;;;;;11.05;71.06;103051.81;7395737;19;20018;-48
2023/05/27 05:39:55;;;;;;;18.20;5.47;;;;;;;11.12;70.99;103054.16;7391561;19;20534;-46
2023/05/27 05:42:24;;;;;;;17.45;5.60;;;;;;;11.13;71.18;103053.22;7393623;19;20026;-49
2023/05/27 05:44:52;;;;;;;17.48;5.45;;;;;;;11.21;70.89;103048.50;7394488;19;20037;-46
2023/05/27 05:47:19;;;;;;;15.85;4.95;;;;;;;11.15;70.86;103046.09;7394953;19;20089;-47
2023/05/27 05:49:46;;;;;;;18.95;5.20;;;;;;;11.10;70.84;103048.03;7393945;19;20019;-49
2023/05/27 05:52:14;;;;;;;20.55;5.57;;;;;;;11.14;71.35;103052.34;7393855;19;20491;-49
2023/05/27 05:54:41;;;;;;;18.23;5.40;;;;;;;11.26;70.82;103050.97;7394242;19;20098;-50
2023/05/27 05:57:08;;;;;;;23.83;5.93;;;;;;;11.31;71.15;103050.78;7392939;19;20020;-49
2023/05/27 05:59:35;;;;;;;17.92;5.47;;;;;;;11.49;71.02;103046.56;7391994;19;20017;-48
2023/05/27 06:02:02;;;;;;;17.52;5.13;;;;;;;11.49;70.62;103044.75;7392282;19;20022;-51
2023/05/27 06:04:29;;;;;;;16.52;5.55;;;;;;;11.43;70.90;103050.28;7392283;19;20025;-50
2023/05/27 06:06:57;;;;;;;17.40;4.57;;;;;;;11.52;70.51;103051.72;7394476;19;20041;-49
2023/05/27 06:09:27;;;;;;;22.35;10.60;;;;;;;11.59;70.54;103050.53;7391881;19;20082;-49
2023/05/27 06:11:55;;;;;;;18.10;6.00;;;;;;;11.68;70.20;103048.38;7393436;19;20026;-46
2023/05/27 06:14:22;;;;;;;16.63;4.85;;;;;;;11.80;70.12;103052.31;7393911;19;20047;-46
2023/05/27 06:16:49;;;;;;;20.50;5.47;;;;;;;11.90;69.85;103048.34;7393869;19;20032;-46
2023/05/27 06:19:17;;;;;;;20.83;5.60;;;;;;;11.87;69.99;103050.31;7391238;19;20019;-47
2023/05/27 06:21:44;;;;;;;19.42;5.55;;;;;;;11.83;70.29;103040.69;7393483;19;20043;-46
2023/05/27 06:24:11;;;;;;;20.63;5.63;;;;;;;11.84;70.21;103035.34;7393158;19;20049;-50
2023/05/27 06:26:38;;;;;;;20.42;6.15;;;;;;;11.90;69.97;103037.72;7392835;19;20015;-47
2023/05/27 06:29:06;;;;;;;16.17;5.35;;;;;;;11.88;70.10;103039.59;7390545;19;20057;-49
2023/05/27 06:31:33;;;;;;;19.73;5.60;;;;;;;12.02;69.80;103040.78;7391924;19;20023;-47
2023/05/27 06:34:00;;;;;;;16.73;4.75;;;;;;;12.08;69.64;103032.56;7393404;19;20019;-48
2023/05/27 06:36:28;;;;;;;18.13;5.35;;;;;;;12.04;70.01;103036.28;7392331;19;20042;-47
2023/05/27 06:38:56;;;;;;;17.55;5.22;;;;;;;12.07;69.99;103029.06;7392184;19;20027;-49
2023/05/27 06:41:23;;;;;;;19.60;6.20;;;;;;;12.11;69.74;103032.44;7391028;19;20360;-47
2023/05/27 06:43:50;;;;;;;18.05;5.50;;;;;;;12.24;69.89;103030.09;7392946;19;20022;-46
2023/05/27 06:46:17;;;;;;;19.67;5.47;;;;;;;12.37;68.99;103031.31;7392538;19;20020;-48
2023/05/27 06:48:44;;;;;;;17.90;5.43;;;;;;;12.36;69.15;103025.13;7392296;19;20047;-48
2023/05/27 06:51:11;;;;;;;14.82;5.15;;;;;;;12.47;68.80;103031.72;7391430;19;20097;-46
2023/05/27 06:53:39;;;;;;;19.33;6.18;;;;;;;12.52;68.75;103035.06;7390626;19;20019;-45
2023/05/27 06:56:06;;;;;;;20.45;6.07;;;;;;;12.53;68.85;103034.13;7391771;19;20025;-50
2023/05/27 06:58:33;;;;;;;16.58;6.05;;;;;;;12.62;68.90;103036.34;7391485;19;20015;-47
2023/05/27 07:01:01;;;;;;;18.45;5.65;;;;;;;12.61;68.69;103037.28;7389647;19;20050;-46
2023/05/27 07:03:28;;;;;;;17.70;5.82;;;;;;;12.61;69.21;103035.50;7390575;19;20015;-46
2023/05/27 07:05:56;;;;;;;22.25;6.65;;;;;;;12.64;69.04;103034.50;7390967;19;20014;-47
2023/05/27 07:08:23;;;;;;;21.23;6.28;;;;;;;12.74;68.98;103019.84;7392376;19;20023;-48
2023/05/27 07:10:50;;;;;;;18.48;5.65;;;;;;;12.72;68.75;103019.06;7390050;19;20023;-46
2023/05/27 07:13:18;;;;;;;23.05;6.57;;;;;;;12.82;68.63;103012.38;7390373;19;20026;-46
2023/05/27 07:15:45;;;;;;;17.67;5.15;;;;;;;12.97;68.26;103016.09;7391099;19;20074;-46
2023/05/27 07:18:12;;;;;;;18.77;5.80;;;;;;;13.03;67.98;103015.81;7390594;19;20018;-50
2023/05/27 07:20:39;;;;;;;15.98;5.45;;;;;;;13.06;68.04;103010.34;7389285;19;20020;-45
2023/05/27 07:23:07;;;;;;;19.17;5.13;;;;;;;13.02;67.99;103006.13;7390676;19;20489;-46
2023/05/27 07:25:34;;;;;;;14.95;5.47;;;;;;;13.00;67.93;103012.44;7390471;19;20014;-47
2023/05/27 07:28:01;;;;;;;19.73;5.75;;;;;;;13.06;67.83;103001.50;7392143;19;20218;-47
2023/05/27 07:30:28;;;;;;;16.55;5.68;;;;;;;13.15;67.55;102995.75;7390681;19;20546;-46
2023/05/27 07:32:55;;;;;;;19.73;6.22;;;;;;;13.28;67.39;102998.69;7390418;19;20359;-46
2023/05/27 07:35:23;;;;;;;18.77;6.18;;;;;;;13.32;66.68;102986.97;7388570;19;20076;-47
2023/05/27 07:37:50;;;;;;;22.30;5.82;;;;;;;13.33;66.57;102989.56;7391496;19;20014;-45
2023/05/27 07:40:17;;;;;;;15.20;5.43;;;;;;;13.39;67.13;102991.94;7389673;19;20483;-46
2023/05/27 07:42:44;;;;;;;17.10;5.00;;;;;;;13.49;66.66;102988.78;7390186;19;20014;-46
2023/05/27 07:45:11;;;;;;;20.73;5.82;;;;;;;13.55;66.79;102992.00;7390686;19;20056;-46
2023/05/27 07:47:39;;;;;;;16.85;5.30;;;;;;;13.63;66.58;102986.31;7391085;19;20014;-46
2023/05/27 07:50:06;;;;;;;15.35;5.90;;;;;;;13.71;66.64;102985.91;7390111;19;20090;-48
2023/05/27 07:52:33;;;;;;;19.85;5.32;;;;;;;13.81;66.19;102982.72;7390044;19;20045;-47
2023/05/27 07:55:01;;;;;;;19.70;5.28;;;;;;;13.92;66.07;102989.25;7390160;19;20043;-47
2023/05/27 07:57:28;;;;;;;17.40;5.47;;;;;;;13.99;65.69;102977.34;7390504;19;20495;-51
2023/05/27 07:59:55;;;;;;;15.38;5.20;;;;;;;14.06;65.79;102976.94;7388936;19;20015;-48
2023/05/27 08:02:23;;;;;;;17.70;4.90;;;;;;;14.11;65.33;102977.53;7389118;19;20015;-49
2023/05/27 08:04:51;;;;;;;20.10;5.85;;;;;;;14.11;65.10;102977.53;7389206;19;20028;-48
2023/05/27 08:07:18;;;;;;;20.88;6.22;;;;;;;14.14;64.79;102979.19;7390391;19;20028;-48
2023/05/27 08:09:45;;;;;;;17.98;5.18;;;;;;;14.18;64.52;102977.25;7388914;19;20018;-50
2023/05/27 08:12:12;;;;;;;17.40;5.40;;;;;;;14.21;64.45;102983.25;7389511;19;20023;-50
2023/05/27 08:14:43;;;;;;;17.95;4.82;;;;;;;14.29;64.43;102972.19;7389933;19;20022;-50
2023/05/27 08:17:10;;;;;;;14.80;5.15;;;;;;;14.39;64.22;102973.44;7389867;19;20010;-45
2023/05/27 08:19:37;;;;;;;15.73;4.70;;;;;;;14.44;64.26;102970.50;7389030;19;20010;-46
2023/05/27 08:22:08;;;;;;;19.38;4.75;;;;;;;14.52;63.92;102962.97;7389399;19;20077;-47
2023/05/27 08:24:35;;;;;;;17.95;5.38;;;;;;;14.58;63.75;102957.31;7397546;19;20006;-46
2023/05/27 08:27:05;;;;;;;18.25;5.28;;;;;;;14.61;63.31;102962.47;7396931;19;20059;-49
2023/05/27 08:29:33;;;;;;;19.73;5.00;;;;;;;14.64;63.19;102956.97;7396800;19;20371;-47
2023/05/27 08:32:00;;;;;;;14.65;4.97;;;;;;;14.66;63.00;102952.41;7395673;19;20018;-45
2023/05/27 08:34:27;;;;;;;15.23;4.97;;;;;;;14.68;62.87;102953.19;7396123;19;20019;-49
2023/05/27 08:36:54;;;;;;;18.33;5.43;;;;;;;14.72;62.47;102952.06;7395096;19;20052;-46
2023/05/27 08:39:22;;;;;;;18.52;5.47;;;;;;;14.78;62.33;102943.72;7395943;19;20054;-45
2023/05/27 08:41:49;;;;;;;16.85;5.07;;;;;;;14.88;62.09;102944.03;7392500;19;20015;-46
2023/05/27 08:44:16;;;;;;;19.17;5.35;;;;;;;14.81;61.95;102942.69;7396109;19;20013;-46
2023/05/27 08:46:50;;;;;;;16.85;4.80;;;;;;;14.75;62.12;102937.69;7396104;19;20018;-45
2023/05/27 08:49:17;;;;;;;16.25;5.38;;;;;;;14.72;62.27;102938.72;7397422;19;20014;-47
2023/05/27 08:51:45;;;;;;;18.73;5.50;;;;;;;14.77;62.14;102936.69;7395573;19;20025;-46
2023/05/27 08:54:13;;;;;;;20.20;5.90;;;;;;;14.86;62.00;102940.63;7396805;19;20035;-46
2023/05/27 08:56:43;;;;;;;17.08;5.47;;;;;;;14.99;61.55;102932.75;7395405;19;20015;-46
2023/05/27 08:59:11;;;;;;;14.85;4.85;;;;;;;15.06;61.31;102932.31;7395697;19;20019;-47
2023/05/27 09:01:39;;;;;;;18.10;5.18;;;;;;;15.09;61.41;102925.97;7393286;19;20068;-49
2023/05/27 09:04:06;;;;;;;16.95;5.28;;;;;;;15.09;62.01;102921.47;7394764;19;20019;-48
2023/05/27 09:06:34;;;;;;;16.58;5.22;;;;;;;15.10;62.26;102925.00;7392227;19;20022;-45
2023/05/27 09:09:01;;;;;;;19.75;5.55;;;;;;;15.22;62.13;102921.63;7394783;19;20022;-49
2023/05/27 09:11:30;;;;;;;17.35;5.43;;;;;;;15.31;62.18;102914.91;7395868;19;20021;-46
2023/05/27 09:13:57;;;;;;;24.52;6.40;;;;;;;15.39;62.07;102920.63;7393799;19;20430;-47
2023/05/27 09:16:24;;;;;;;20.98;6.03;;;;;;;15.49;61.33;102916.47;7388471;19;20025;-47
2023/05/27 09:18:52;;;;;;;17.52;5.68;;;;;;;15.55;61.07;102904.56;7389422;19;20357;-47
2023/05/27 09:21:19;;;;;;;17.40;5.63;;;;;;;15.60;61.31;102913.13;7391144;19;20023;-45
2023/05/27 09:23:46;;;;;;;17.55;6.38;;;;;;;15.77;61.29;102905.00;7395904;19;20095;-45
2023/05/27 09:26:13;;;;;;;19.15;5.20;;;;;;;15.84;60.89;102910.84;7394069;19;20029;-47
2023/05/27 09:28:41;;;;;;;17.73;5.05;;;;;;;15.94;60.61;102909.31;7394447;19;20541;-48
2023/05/27 09:31:09;;;;;;;21.63;7.07;;;;;;;16.13;59.80;102910.84;7395248;19;20095;-45
2023/05/27 09:33:40;;;;;;;19.80;5.95;;;;;;;16.24;59.52;102911.00;7390863;19;20026;-46
2023/05/27 09:36:08;;;;;;;15.52;5.25;;;;;;;16.42;58.54;102900.97;7394542;19;20047;-45
2023/05/27 09:38:36;;;;;;;15.60;5.70;;;;;;;16.57;58.00;102892.81;7394110;19;20022;-46
2023/05/27 09:41:03;;;;;;;19.83;5.50;;;;;;;16.51;57.85;102900.38;7394127;19;20064;-48
2023/05/27 09:43:31;;;;;;;14.20;5.32;;;;;;;16.43;57.96;102892.84;7391600;19;20022;-44
2023/05/27 09:46:03;;;;;;;17.70;6.10;;;;;;;16.40;58.28;102884.16;7394783;19;20038;-46
2023/05/27 09:48:31;;;;;;;15.32;5.95;;;;;;;16.49;57.61;102888.94;7391351;19;20022;-46
2023/05/27 09:51:03;;;;;;;19.10;5.65;;;;;;;16.65;57.05;102886.97;7390391;19;20100;-46
2023/05/27 09:53:33;;;;;;;18.20;5.50;;;;;;;16.70;56.91;102884.84;7390753;19;20022;-46
2023/05/27 09:56:00;;;;;;;19.35;5.93;;;;;;;16.71;56.54;102883.03;7393839;19;20518;-45
2023/05/27 09:58:28;;;;;;;16.70;5.82;;;;;;;16.77;55.95;102877.31;7384245;19;20033;-46
2023/05/27 10:00:56;;;;;;;19.08;6.03;;;;;;;16.81;55.94;102871.66;7391798;19;20021;-45
2023/05/27 10:03:24;;;;;;;19.48;6.60;;;;;;;16.84;55.46;102870.59;7391900;19;20054;-47
2023/05/27 10:05:51;;;;;;;20.02;6.15;;;;;;;16.92;55.54;102870.09;7391831;19;20076;-46
2023/05/27 10:08:19;;;;;;;20.85;5.95;;;;;;;16.87;55.59;102861.50;7392458;19;20022;-46
2023/05/27 10:10:49;;;;;;;14.77;5.82;;;;;;;16.65;56.19;102862.03;7393617;19;20029;-45
2023/05/27 10:13:20;;;;;;;14.65;5.97;;;;;;;16.56;56.16;102860.81;7390924;19;20024;-47
2023/05/27 10:15:50;;;;;;;20.77;6.55;;;;;;;16.61;55.90;102856.03;7392551;19;20039;-47
2023/05/27 10:18:29;;;;;;;16.40;5.82;;;;;;;16.56;55.50;102864.34;7393933;19;20034;-46
2023/05/27 10:20:58;;;;;;;15.18;5.53;;;;;;;16.36;55.96;102853.22;7392545;19;20010;-45
2023/05/27 10:23:27;;;;;;;15.63;5.68;;;;;;;16.40;55.96;102849.38;7391836;19;20022;-47
2023/05/27 10:26:07;;;;;;;17.30;6.00;;;;;;;16.56;55.33;102850.13;7392654;19;20017;-48
2023/05/27 10:28:37;;;;;;;18.17;5.88;;;;;;;16.61;55.15;102849.81;7391023;19;20074;-46
2023/05/27 10:31:15;;;;;;;17.67;5.15;;;;;;;16.64;54.96;102846.94;7390846;19;20413;-47
2023/05/27 10:33:45;;;;;;;18.15;5.82;;;;;;;16.76;54.93;102843.50;7390751;19;20043;-47
2023/05/27 10:36:21;;;;;;;16.02;5.28;;;;;;;16.89;54.97;102836.34;7391908;19;20087;-48
2023/05/27 10:38:57;;;;;;;17.25;5.18;;;;;;;17.13;54.82;102841.84;7390746;19;20473;-45
2023/05/27 10:41:24;;;;;;;19.48;5.80;;;;;;;17.29;53.87;102833.66;7391732;19;20090;-46
2023/05/27 10:43:58;;;;;;;16.17;5.60;;;;;;;17.34;53.63;102825.28;7392495;19;20028;-46
2023/05/27 10:46:26;;;;;;;14.88;5.35;;;;;;;17.27;53.06;102827.53;7391332;19;20010;-46
2023/05/27 10:48:53;;;;;;;19.77;5.88;;;;;;;17.25;53.44;102822.28;7391162;19;20018;-45
2023/05/27 10:51:31;;;;;;;18.48;5.40;;;;;;;17.29;53.34;102820.25;7392406;19;20080;-45
2023/05/27 10:54:03;;;;;;;16.15;5.55;;;;;;;17.34;53.04;102823.47;7390301;19;20014;-44
2023/05/27 10:56:51;;;;;;;18.25;6.60;;;;;;;17.23;53.15;102812.63;7390475;19;20034;-44
2023/05/27 10:59:22;;;;;;;15.93;5.55;;;;;;;17.28;53.89;102822.09;7391353;19;20348;-46
2023/05/27 11:01:53;;;;;;;14.25;5.38;;;;;;;17.45;53.79;102820.03;7391457;19;20022;-45
2023/05/27 11:04:24;;;;;;;18.80;6.25;;;;;;;17.23;53.29;102810.81;7391530;19;20497;-46
2023/05/27 11:06:59;;;;;;;17.73;5.90;;;;;;;17.25;53.18;102816.09;7392415;19;20336;-48
2023/05/27 11:09:31;;;;;;;17.17;5.50;;;;;;;17.12;53.42;102807.16;7391281;19;20392;-47
2023/05/27 11:12:02;;;;;;;16.40;5.50;;;;;;;17.21;53.16;102801.19;7389596;19;20018;-47
2023/05/27 11:14:30;;;;;;;16.42;6.00;;;;;;;17.45;52.59;102801.28;7391311;19;20023;-47
2023/05/27 11:16:57;;;;;;;18.63;6.47;;;;;;;17.42;52.22;102794.31;7391753;19;20074;-47
2023/05/27 11:19:24;;;;;;;15.93;5.68;;;;;;;17.49;52.08;102790.25;7388919;19;20030;-44
2023/05/27 11:21:51;;;;;;;18.45;5.85;;;;;;;17.43;52.43;102793.34;7390793;19;20479;-45
2023/05/27 11:24:20;;;;;;;16.30;5.72;;;;;;;17.27;52.18;102788.22;7390840;19;20010;-49